NWS221 ZWWW-UAAA
Flight info
| Callsign | NWS221 |
|---|---|
| Flight time | 1h 22m |
| Altitude | 40100 |
| Route | NIXER W119 GOBOK A343 RULAD/K0885F400 M610 BERTO Z315 ALUGI |
| Aircraft | B772/H-SDE2E3FGHIJ5LORVWXY/LB1D1 |
Departure
| Time | 2026-04-25 09:05 |
|---|---|
| Airport | Ürümqi Tianshan International Airport (ZWWW) |
Arrival
| Time | 2026-04-25 10:27 |
|---|---|
| Airport | Almaty International Airport (UAAA) |
| Time | Latitude | Longitude | Altitude | Speed | Heading |
|---|---|---|---|---|---|
| 2026-04-25 08:04 | 43.91920 | 87.47124 | 2146 ft | 0 kts | 160° |
| 2026-04-25 08:52 | 43.91925 | 87.47122 | 2146 ft | 2 kts | 160° |
| 2026-04-25 08:52 | 43.91939 | 87.47115 | 2146 ft | 2 kts | 160° |
| 2026-04-25 08:53 | 43.91953 | 87.47109 | 2146 ft | 2 kts | 160° |
| 2026-04-25 08:53 | 43.91967 | 87.47102 | 2146 ft | 2 kts | 167° |
| 2026-04-25 08:53 | 43.91982 | 87.47101 | 2146 ft | 2 kts | 193° |
| 2026-04-25 08:53 | 43.91996 | 87.47109 | 2146 ft | 2 kts | 214° |
| 2026-04-25 08:54 | 43.92007 | 87.47123 | 2146 ft | 2 kts | 235° |
| 2026-04-25 08:54 | 43.92013 | 87.47137 | 2146 ft | 0 kts | 252° |
| 2026-04-25 08:54 | 43.92014 | 87.47143 | 2146 ft | 0 kts | 254° |
| 2026-04-25 08:58 | 43.92010 | 87.47124 | 2146 ft | 6 kts | 254° |
| 2026-04-25 08:58 | 43.92005 | 87.47024 | 2146 ft | 13 kts | 313° |
| 2026-04-25 08:58 | 43.92041 | 87.46880 | 2146 ft | 21 kts | 253° |
| 2026-04-25 08:59 | 43.91998 | 87.46667 | 2146 ft | 23 kts | 254° |
| 2026-04-25 08:59 | 43.91952 | 87.46444 | 2146 ft | 24 kts | 252° |
| 2026-04-25 08:59 | 43.91904 | 87.46216 | 2146 ft | 25 kts | 256° |
| 2026-04-25 08:59 | 43.91854 | 87.45978 | 2146 ft | 26 kts | 253° |
| 2026-04-25 09:00 | 43.91801 | 87.45731 | 2146 ft | 26 kts | 253° |
| 2026-04-25 09:00 | 43.91747 | 87.45477 | 2146 ft | 27 kts | 252° |
| 2026-04-25 09:00 | 43.91715 | 87.45335 | 2146 ft | 3 kts | 253° |
| 2026-04-25 09:00 | 43.91705 | 87.45287 | 2146 ft | 8 kts | 253° |
| 2026-04-25 09:01 | 43.91704 | 87.45206 | 2146 ft | 7 kts | 325° |
| 2026-04-25 09:01 | 43.91764 | 87.45176 | 2146 ft | 10 kts | 341° |
| 2026-04-25 09:01 | 43.91808 | 87.45159 | 2146 ft | 0 kts | 347° |
| 2026-04-25 09:03 | 43.91813 | 87.45158 | 2146 ft | 1 kts | 347° |
| 2026-04-25 09:03 | 43.91837 | 87.45150 | 2146 ft | 4 kts | 346° |
| 2026-04-25 09:03 | 43.91880 | 87.45136 | 2146 ft | 7 kts | 345° |
| 2026-04-25 09:03 | 43.91934 | 87.45155 | 2146 ft | 9 kts | 44° |
| 2026-04-25 09:04 | 43.91968 | 87.45254 | 2146 ft | 14 kts | 73° |
| 2026-04-25 09:04 | 43.92051 | 87.45637 | 2146 ft | 82 kts | 71° |
| 2026-04-25 09:04 | 43.92295 | 87.46760 | 2146 ft | 158 kts | 73° |
| 2026-04-25 09:04 | 43.92633 | 87.48404 | 2538 ft | 185 kts | 73° |
| 2026-04-25 09:05 | 43.92933 | 87.50050 | 3400 ft | 181 kts | 73° |
| 2026-04-25 09:05 | 43.93303 | 87.51762 | 4151 ft | 193 kts | 68° |
| 2026-04-25 09:05 | 43.93707 | 87.53543 | 4965 ft | 195 kts | 72° |
| 2026-04-25 09:05 | 43.94098 | 87.55396 | 5524 ft | 208 kts | 73° |
| 2026-04-25 09:06 | 43.94506 | 87.57344 | 6158 ft | 218 kts | 72° |
| 2026-04-25 09:06 | 43.94951 | 87.59422 | 6776 ft | 231 kts | 71° |
| 2026-04-25 09:06 | 43.95723 | 87.61395 | 7433 ft | 239 kts | 48° |
| 2026-04-25 09:06 | 43.97010 | 87.62897 | 7981 ft | 251 kts | 26° |
| 2026-04-25 09:07 | 43.98712 | 87.63631 | 8443 ft | 266 kts | 2° |
| 2026-04-25 09:07 | 44.00571 | 87.63249 | 9064 ft | 275 kts | 336° |
| 2026-04-25 09:07 | 44.02093 | 87.61741 | 9988 ft | 274 kts | 310° |
| 2026-04-25 09:07 | 44.03028 | 87.59424 | 10683 ft | 286 kts | 287° |
| 2026-04-25 09:08 | 44.03150 | 87.56574 | 11096 ft | 309 kts | 261° |
| 2026-04-25 09:08 | 44.02209 | 87.53786 | 11510 ft | 335 kts | 233° |
| 2026-04-25 09:08 | 44.00335 | 87.51728 | 11961 ft | 358 kts | 212° |
| 2026-04-25 09:08 | 43.98096 | 87.50102 | 12463 ft | 374 kts | 210° |
| 2026-04-25 09:09 | 43.95715 | 87.48445 | 13064 ft | 386 kts | 210° |
| 2026-04-25 09:09 | 43.93322 | 87.46787 | 13915 ft | 389 kts | 210° |
| 2026-04-25 09:09 | 43.90890 | 87.45103 | 14872 ft | 390 kts | 210° |
| 2026-04-25 09:09 | 43.88594 | 87.43124 | 15721 ft | 389 kts | 220° |
| 2026-04-25 09:10 | 43.86607 | 87.40580 | 16482 ft | 391 kts | 231° |
| 2026-04-25 09:10 | 43.85032 | 87.37653 | 17250 ft | 392 kts | 239° |
| 2026-04-25 09:10 | 43.83525 | 87.34380 | 18119 ft | 394 kts | 239° |
| 2026-04-25 09:10 | 43.82055 | 87.31162 | 18948 ft | 397 kts | 239° |
| 2026-04-25 09:11 | 43.79074 | 87.24674 | 20537 ft | 403 kts | 240° |
| 2026-04-25 09:11 | 43.77566 | 87.21405 | 21283 ft | 406 kts | 240° |
| 2026-04-25 09:11 | 43.76043 | 87.18109 | 22022 ft | 409 kts | 240° |
| 2026-04-25 09:12 | 43.74515 | 87.14809 | 22720 ft | 413 kts | 240° |
| 2026-04-25 09:12 | 43.72956 | 87.11446 | 23427 ft | 416 kts | 240° |
| 2026-04-25 09:12 | 43.71385 | 87.08064 | 24187 ft | 417 kts | 240° |
| 2026-04-25 09:12 | 43.69825 | 87.04710 | 24978 ft | 417 kts | 240° |
| 2026-04-25 09:13 | 43.68264 | 87.01356 | 25694 ft | 417 kts | 240° |
| 2026-04-25 09:13 | 43.66740 | 86.98086 | 26346 ft | 418 kts | 240° |
| 2026-04-25 09:13 | 43.65172 | 86.94727 | 26997 ft | 419 kts | 240° |
| 2026-04-25 09:13 | 43.63609 | 86.91381 | 27663 ft | 420 kts | 240° |
| 2026-04-25 09:14 | 43.62027 | 86.88000 | 28318 ft | 420 kts | 240° |
| 2026-04-25 09:14 | 43.60446 | 86.84627 | 28972 ft | 419 kts | 240° |
| 2026-04-25 09:14 | 43.58862 | 86.81248 | 29578 ft | 420 kts | 240° |
| 2026-04-25 09:14 | 43.57398 | 86.77718 | 30160 ft | 419 kts | 246° |
| 2026-04-25 09:15 | 43.56306 | 86.74008 | 30715 ft | 419 kts | 253° |
| 2026-04-25 09:15 | 43.55592 | 86.70140 | 31386 ft | 417 kts | 259° |
| 2026-04-25 09:15 | 43.55267 | 86.66178 | 32159 ft | 414 kts | 266° |
| 2026-04-25 09:15 | 43.55331 | 86.62200 | 32979 ft | 411 kts | 273° |
| 2026-04-25 09:16 | 43.55716 | 86.58350 | 33718 ft | 409 kts | 276° |
| 2026-04-25 09:16 | 43.56162 | 86.54518 | 34328 ft | 407 kts | 276° |
| 2026-04-25 09:16 | 43.56608 | 86.50637 | 34776 ft | 407 kts | 276° |
| 2026-04-25 09:16 | 43.57040 | 86.46809 | 35071 ft | 411 kts | 276° |
| 2026-04-25 09:17 | 43.57909 | 86.38979 | 35845 ft | 414 kts | 276° |
| 2026-04-25 09:17 | 43.58340 | 86.35050 | 36342 ft | 414 kts | 276° |
| 2026-04-25 09:17 | 43.58767 | 86.31134 | 36823 ft | 414 kts | 276° |
| 2026-04-25 09:18 | 43.59187 | 86.27248 | 37270 ft | 415 kts | 276° |
| 2026-04-25 09:18 | 43.59612 | 86.23305 | 37651 ft | 416 kts | 276° |
| 2026-04-25 09:18 | 43.60036 | 86.19356 | 38017 ft | 417 kts | 276° |
| 2026-04-25 09:18 | 43.60462 | 86.15363 | 38337 ft | 419 kts | 276° |
| 2026-04-25 09:19 | 43.60882 | 86.11415 | 38619 ft | 421 kts | 276° |
| 2026-04-25 09:19 | 43.61309 | 86.07394 | 38903 ft | 422 kts | 276° |
| 2026-04-25 09:19 | 43.61738 | 86.03450 | 39160 ft | 423 kts | 276° |
| 2026-04-25 09:19 | 43.62180 | 85.99414 | 39368 ft | 424 kts | 277° |
| 2026-04-25 09:20 | 43.62620 | 85.95370 | 39541 ft | 425 kts | 277° |
| 2026-04-25 09:20 | 43.63056 | 85.91357 | 39787 ft | 423 kts | 277° |
| 2026-04-25 09:20 | 43.63485 | 85.87389 | 40005 ft | 422 kts | 277° |
| 2026-04-25 09:20 | 43.63916 | 85.83384 | 40140 ft | 423 kts | 276° |
| 2026-04-25 09:21 | 43.64262 | 85.79336 | 40231 ft | 425 kts | 275° |
| 2026-04-25 09:21 | 43.64887 | 85.71225 | 40429 ft | 427 kts | 275° |
| 2026-04-25 09:22 | 43.65517 | 85.63094 | 40437 ft | 424 kts | 275° |
| 2026-04-25 09:22 | 43.66145 | 85.54981 | 40439 ft | 425 kts | 275° |
| 2026-04-25 09:23 | 43.66765 | 85.46925 | 40438 ft | 423 kts | 275° |
| 2026-04-25 09:23 | 43.67384 | 85.38833 | 40438 ft | 427 kts | 275° |
| 2026-04-25 09:24 | 43.68003 | 85.30675 | 40443 ft | 425 kts | 274° |
| 2026-04-25 09:24 | 43.68613 | 85.22550 | 40436 ft | 425 kts | 275° |
| 2026-04-25 09:25 | 43.68663 | 85.14455 | 40440 ft | 424 kts | 262° |
| 2026-04-25 09:25 | 43.67165 | 85.06610 | 40452 ft | 426 kts | 249° |
| 2026-04-25 09:26 | 43.64268 | 84.99452 | 40446 ft | 427 kts | 240° |
| 2026-04-25 09:26 | 43.61060 | 84.92551 | 40449 ft | 428 kts | 240° |
| 2026-04-25 09:27 | 43.57834 | 84.85647 | 40456 ft | 429 kts | 240° |
| 2026-04-25 09:27 | 43.54623 | 84.78801 | 40458 ft | 428 kts | 240° |
| 2026-04-25 09:28 | 43.51383 | 84.71914 | 40458 ft | 430 kts | 239° |
| 2026-04-25 09:28 | 43.48124 | 84.65004 | 40468 ft | 427 kts | 240° |
| 2026-04-25 09:29 | 43.44901 | 84.58187 | 40468 ft | 428 kts | 240° |
| 2026-04-25 09:29 | 43.41663 | 84.51355 | 40496 ft | 428 kts | 239° |
| 2026-04-25 09:30 | 43.38410 | 84.44454 | 40508 ft | 428 kts | 243° |
| 2026-04-25 09:30 | 43.36111 | 84.37013 | 40523 ft | 425 kts | 256° |
| 2026-04-25 09:31 | 43.35335 | 84.28973 | 40528 ft | 426 kts | 269° |
| 2026-04-25 09:31 | 43.35917 | 84.20906 | 40542 ft | 426 kts | 276° |
| 2026-04-25 09:32 | 43.36681 | 84.12820 | 40554 ft | 427 kts | 275° |
| 2026-04-25 09:32 | 43.37418 | 84.04764 | 40574 ft | 427 kts | 275° |
| 2026-04-25 09:33 | 43.38141 | 83.96672 | 40579 ft | 427 kts | 275° |
| 2026-04-25 09:33 | 43.38857 | 83.88548 | 40564 ft | 427 kts | 275° |
| 2026-04-25 09:34 | 43.39559 | 83.80489 | 40567 ft | 427 kts | 275° |
| 2026-04-25 09:34 | 43.40258 | 83.72382 | 40558 ft | 426 kts | 275° |
| 2026-04-25 09:35 | 43.40948 | 83.64301 | 40552 ft | 427 kts | 275° |
| 2026-04-25 09:35 | 43.41630 | 83.56248 | 40542 ft | 425 kts | 275° |
| 2026-04-25 09:36 | 43.42307 | 83.48175 | 40532 ft | 426 kts | 275° |
| 2026-04-25 09:36 | 43.42983 | 83.40056 | 40527 ft | 426 kts | 275° |
| 2026-04-25 09:37 | 43.43462 | 83.31953 | 40529 ft | 426 kts | 271° |
| 2026-04-25 09:37 | 43.43728 | 83.23846 | 40526 ft | 425 kts | 271° |
| 2026-04-25 09:38 | 43.44004 | 83.15732 | 40516 ft | 426 kts | 271° |
| 2026-04-25 09:38 | 43.44284 | 83.07652 | 40509 ft | 424 kts | 271° |
| 2026-04-25 09:39 | 43.44563 | 82.99528 | 40498 ft | 426 kts | 271° |
| 2026-04-25 09:39 | 43.44839 | 82.91434 | 40487 ft | 424 kts | 271° |
| 2026-04-25 09:40 | 43.45244 | 82.79270 | 40451 ft | 424 kts | 271° |
| 2026-04-25 09:40 | 43.45508 | 82.71146 | 40437 ft | 425 kts | 271° |
| 2026-04-25 09:41 | 43.45765 | 82.63078 | 40421 ft | 426 kts | 271° |
| 2026-04-25 09:41 | 43.46019 | 82.54926 | 40433 ft | 425 kts | 271° |
| 2026-04-25 09:42 | 43.46266 | 82.46795 | 40412 ft | 427 kts | 271° |
| 2026-04-25 09:42 | 43.46507 | 82.38666 | 40386 ft | 425 kts | 271° |
| 2026-04-25 09:43 | 43.46743 | 82.30532 | 40397 ft | 426 kts | 270° |
| 2026-04-25 09:43 | 43.46972 | 82.22441 | 40399 ft | 426 kts | 270° |
| 2026-04-25 09:44 | 43.47196 | 82.14307 | 40388 ft | 425 kts | 270° |
| 2026-04-25 09:44 | 43.47414 | 82.06185 | 40363 ft | 426 kts | 270° |
| 2026-04-25 09:45 | 43.47626 | 81.98099 | 40373 ft | 426 kts | 270° |
| 2026-04-25 09:45 | 43.47832 | 81.89985 | 40375 ft | 425 kts | 270° |
| 2026-04-25 09:46 | 43.48033 | 81.81850 | 40364 ft | 427 kts | 270° |
| 2026-04-25 09:46 | 43.48231 | 81.73641 | 40383 ft | 426 kts | 270° |
| 2026-04-25 09:47 | 43.48417 | 81.65525 | 40381 ft | 426 kts | 270° |
| 2026-04-25 09:47 | 43.48587 | 81.57408 | 40384 ft | 427 kts | 270° |
| 2026-04-25 09:48 | 43.48754 | 81.49245 | 40377 ft | 427 kts | 270° |
| 2026-04-25 09:48 | 43.48915 | 81.41074 | 40366 ft | 427 kts | 270° |
| 2026-04-25 09:49 | 43.49069 | 81.32958 | 40368 ft | 426 kts | 270° |
| 2026-04-25 09:49 | 43.49218 | 81.24796 | 40374 ft | 428 kts | 270° |
| 2026-04-25 09:50 | 43.49363 | 81.16585 | 40363 ft | 427 kts | 270° |
| 2026-04-25 09:50 | 43.49500 | 81.08459 | 40356 ft | 427 kts | 270° |
| 2026-04-25 09:51 | 43.49632 | 81.00298 | 40352 ft | 428 kts | 270° |
| 2026-04-25 09:51 | 43.49759 | 80.92104 | 40350 ft | 427 kts | 269° |
| 2026-04-25 09:52 | 43.49879 | 80.83968 | 40302 ft | 426 kts | 270° |
| 2026-04-25 09:52 | 43.49994 | 80.75824 | 40252 ft | 429 kts | 270° |
| 2026-04-25 09:53 | 43.50210 | 80.67632 | 40242 ft | 427 kts | 271° |
| 2026-04-25 09:53 | 43.50543 | 80.59495 | 40240 ft | 428 kts | 272° |
| 2026-04-25 09:54 | 43.50864 | 80.51290 | 40238 ft | 428 kts | 271° |
| 2026-04-25 09:54 | 43.51172 | 80.43138 | 40238 ft | 429 kts | 272° |
| 2026-04-25 09:55 | 43.51474 | 80.34920 | 40242 ft | 428 kts | 271° |
| 2026-04-25 09:55 | 43.51767 | 80.26753 | 40248 ft | 430 kts | 271° |
| 2026-04-25 09:56 | 43.52055 | 80.18565 | 40247 ft | 429 kts | 271° |
| 2026-04-25 09:56 | 43.52337 | 80.10340 | 40248 ft | 430 kts | 271° |
| 2026-04-25 09:57 | 43.52611 | 80.02168 | 40247 ft | 429 kts | 271° |
| 2026-04-25 09:57 | 43.52883 | 79.93909 | 40236 ft | 430 kts | 271° |
| 2026-04-25 09:58 | 43.53228 | 79.85734 | 40241 ft | 431 kts | 276° |
| 2026-04-25 09:58 | 43.54803 | 79.77784 | 40227 ft | 436 kts | 290° |
| 2026-04-25 09:59 | 43.57804 | 79.70446 | 40213 ft | 442 kts | 298° |
| 2026-04-25 09:59 | 43.61066 | 79.63264 | 40205 ft | 442 kts | 298° |
| 2026-04-25 10:00 | 43.64305 | 79.56069 | 40208 ft | 441 kts | 298° |
| 2026-04-25 10:00 | 43.67516 | 79.48891 | 40200 ft | 443 kts | 298° |
| 2026-04-25 10:01 | 43.70755 | 79.41622 | 40197 ft | 442 kts | 298° |
| 2026-04-25 10:01 | 43.73959 | 79.34405 | 40194 ft | 443 kts | 297° |
| 2026-04-25 10:02 | 43.76704 | 79.26871 | 40185 ft | 437 kts | 285° |
| 2026-04-25 10:02 | 43.77873 | 79.18704 | 40194 ft | 433 kts | 271° |
| 2026-04-25 10:03 | 43.78077 | 79.10416 | 40196 ft | 433 kts | 270° |
| 2026-04-25 10:03 | 43.78244 | 79.02094 | 40202 ft | 433 kts | 270° |
| 2026-04-25 10:04 | 43.78402 | 78.93817 | 39800 ft | 426 kts | 270° |
| 2026-04-25 10:04 | 43.78476 | 78.89728 | 39045 ft | 429 kts | 270° |
| 2026-04-25 10:04 | 43.78549 | 78.85628 | 38109 ft | 433 kts | 270° |
| 2026-04-25 10:05 | 43.78622 | 78.81457 | 37237 ft | 434 kts | 270° |
| 2026-04-25 10:05 | 43.78692 | 78.77335 | 36349 ft | 435 kts | 270° |
| 2026-04-25 10:05 | 43.78762 | 78.73151 | 35600 ft | 434 kts | 270° |
| 2026-04-25 10:05 | 43.78830 | 78.68971 | 34853 ft | 435 kts | 270° |
| 2026-04-25 10:06 | 43.78895 | 78.64848 | 34057 ft | 438 kts | 270° |
| 2026-04-25 10:06 | 43.78961 | 78.60601 | 33087 ft | 440 kts | 270° |
| 2026-04-25 10:06 | 43.79024 | 78.56412 | 32172 ft | 442 kts | 270° |
| 2026-04-25 10:06 | 43.79087 | 78.52140 | 31262 ft | 443 kts | 270° |
| 2026-04-25 10:07 | 43.79149 | 78.47857 | 30588 ft | 438 kts | 271° |
| 2026-04-25 10:07 | 43.79207 | 78.43715 | 30127 ft | 430 kts | 271° |
| 2026-04-25 10:07 | 43.79264 | 78.39618 | 29618 ft | 424 kts | 271° |
| 2026-04-25 10:07 | 43.79317 | 78.35562 | 29081 ft | 423 kts | 271° |
| 2026-04-25 10:08 | 43.79371 | 78.31438 | 28533 ft | 434 kts | 271° |
| 2026-04-25 10:08 | 43.79424 | 78.27275 | 27987 ft | 433 kts | 271° |
| 2026-04-25 10:08 | 43.79474 | 78.23134 | 27425 ft | 429 kts | 271° |
| 2026-04-25 10:08 | 43.79522 | 78.19047 | 26866 ft | 425 kts | 271° |
| 2026-04-25 10:09 | 43.79569 | 78.14973 | 26288 ft | 421 kts | 271° |
| 2026-04-25 10:09 | 43.79619 | 78.10927 | 25724 ft | 417 kts | 271° |
| 2026-04-25 10:09 | 43.79675 | 78.06987 | 25175 ft | 414 kts | 271° |
| 2026-04-25 10:09 | 43.79729 | 78.02975 | 24570 ft | 411 kts | 271° |
| 2026-04-25 10:10 | 43.79532 | 77.99096 | 23990 ft | 409 kts | 263° |
| 2026-04-25 10:10 | 43.78877 | 77.95251 | 23412 ft | 408 kts | 254° |
| 2026-04-25 10:10 | 43.77807 | 77.91670 | 22844 ft | 408 kts | 245° |
| 2026-04-25 10:10 | 43.76338 | 77.88276 | 22228 ft | 408 kts | 239° |
| 2026-04-25 10:11 | 43.74782 | 77.85017 | 21656 ft | 405 kts | 239° |
| 2026-04-25 10:11 | 43.73224 | 77.81781 | 21062 ft | 403 kts | 239° |
| 2026-04-25 10:11 | 43.71700 | 77.78623 | 20481 ft | 399 kts | 239° |
| 2026-04-25 10:11 | 43.70157 | 77.75431 | 19883 ft | 396 kts | 239° |
| 2026-04-25 10:12 | 43.68639 | 77.72295 | 19291 ft | 394 kts | 239° |
| 2026-04-25 10:12 | 43.67119 | 77.69157 | 18745 ft | 391 kts | 239° |
| 2026-04-25 10:12 | 43.64133 | 77.63004 | 17527 ft | 384 kts | 239° |
| 2026-04-25 10:13 | 43.62649 | 77.59952 | 17196 ft | 374 kts | 239° |
| 2026-04-25 10:13 | 43.61236 | 77.57051 | 16981 ft | 361 kts | 239° |
| 2026-04-25 10:13 | 43.59846 | 77.54198 | 16534 ft | 355 kts | 239° |
| 2026-04-25 10:13 | 43.58477 | 77.51387 | 16020 ft | 353 kts | 239° |
| 2026-04-25 10:14 | 43.57113 | 77.48587 | 15447 ft | 353 kts | 239° |
| 2026-04-25 10:14 | 43.55756 | 77.45798 | 14864 ft | 352 kts | 238° |
| 2026-04-25 10:14 | 43.54380 | 77.42975 | 14365 ft | 350 kts | 238° |
| 2026-04-25 10:14 | 43.53041 | 77.40229 | 13862 ft | 347 kts | 238° |
| 2026-04-25 10:15 | 43.51695 | 77.37472 | 13305 ft | 346 kts | 238° |
| 2026-04-25 10:15 | 43.50367 | 77.34756 | 12816 ft | 344 kts | 237° |
| 2026-04-25 10:15 | 43.49034 | 77.32032 | 12467 ft | 338 kts | 237° |
| 2026-04-25 10:15 | 43.47754 | 77.29421 | 12403 ft | 323 kts | 237° |
| 2026-04-25 10:16 | 43.46500 | 77.26862 | 12171 ft | 316 kts | 238° |
| 2026-04-25 10:16 | 43.45284 | 77.24380 | 11745 ft | 317 kts | 238° |
| 2026-04-25 10:16 | 43.44042 | 77.21851 | 11228 ft | 318 kts | 238° |
| 2026-04-25 10:16 | 43.42806 | 77.19335 | 10821 ft | 316 kts | 237° |
| 2026-04-25 10:17 | 43.41570 | 77.16823 | 10438 ft | 315 kts | 237° |
| 2026-04-25 10:17 | 43.40352 | 77.14349 | 10171 ft | 309 kts | 237° |
| 2026-04-25 10:17 | 43.39171 | 77.11952 | 10124 ft | 295 kts | 237° |
| 2026-04-25 10:17 | 43.38046 | 77.09656 | 10126 ft | 282 kts | 240° |
| 2026-04-25 10:18 | 43.37328 | 77.07233 | 10084 ft | 278 kts | 256° |
| 2026-04-25 10:18 | 43.36887 | 77.04627 | 9799 ft | 280 kts | 259° |
| 2026-04-25 10:18 | 43.36499 | 77.02024 | 9519 ft | 277 kts | 260° |
| 2026-04-25 10:18 | 43.36113 | 76.99429 | 9262 ft | 274 kts | 260° |
| 2026-04-25 10:19 | 43.35730 | 76.96873 | 9021 ft | 273 kts | 260° |
| 2026-04-25 10:19 | 43.35345 | 76.94325 | 8773 ft | 273 kts | 260° |
| 2026-04-25 10:19 | 43.34962 | 76.91786 | 8571 ft | 270 kts | 259° |
| 2026-04-25 10:19 | 43.34588 | 76.89326 | 8551 ft | 257 kts | 259° |
| 2026-04-25 10:20 | 43.34228 | 76.86958 | 8461 ft | 248 kts | 259° |
| 2026-04-25 10:20 | 43.33881 | 76.84667 | 8197 ft | 248 kts | 259° |
| 2026-04-25 10:20 | 43.33527 | 76.82337 | 7889 ft | 249 kts | 259° |
| 2026-04-25 10:20 | 43.33179 | 76.80056 | 7745 ft | 240 kts | 259° |
| 2026-04-25 10:21 | 43.32727 | 76.77885 | 7699 ft | 229 kts | 240° |
| 2026-04-25 10:21 | 43.31575 | 76.76514 | 7637 ft | 220 kts | 199° |
| 2026-04-25 10:21 | 43.30081 | 76.76481 | 7396 ft | 218 kts | 165° |
| 2026-04-25 10:21 | 43.28699 | 76.77211 | 7298 ft | 207 kts | 155° |
| 2026-04-25 10:22 | 43.27583 | 76.78377 | 7077 ft | 202 kts | 127° |
| 2026-04-25 10:22 | 43.27021 | 76.80124 | 6755 ft | 201 kts | 97° |
| 2026-04-25 10:22 | 43.27028 | 76.82011 | 6505 ft | 198 kts | 85° |
| 2026-04-25 10:22 | 43.27115 | 76.83872 | 6389 ft | 189 kts | 85° |
| 2026-04-25 10:23 | 43.27199 | 76.85635 | 6307 ft | 178 kts | 85° |
| 2026-04-25 10:23 | 43.27305 | 76.87318 | 6054 ft | 178 kts | 79° |
| 2026-04-25 10:23 | 43.27805 | 76.88808 | 5765 ft | 175 kts | 52° |
| 2026-04-25 10:23 | 43.28514 | 76.90071 | 5650 ft | 156 kts | 53° |
| 2026-04-25 10:24 | 43.29116 | 76.91252 | 5518 ft | 145 kts | 54° |
| 2026-04-25 10:24 | 43.29674 | 76.92376 | 5240 ft | 144 kts | 54° |
| 2026-04-25 10:24 | 43.30235 | 76.93501 | 4869 ft | 142 kts | 54° |
| 2026-04-25 10:24 | 43.30789 | 76.94614 | 4504 ft | 140 kts | 54° |
| 2026-04-25 10:25 | 43.31338 | 76.95714 | 4086 ft | 141 kts | 54° |
| 2026-04-25 10:25 | 43.31883 | 76.96810 | 3618 ft | 140 kts | 54° |
| 2026-04-25 10:25 | 43.32424 | 76.97897 | 3156 ft | 139 kts | 54° |
| 2026-04-25 10:25 | 43.32962 | 76.98975 | 2808 ft | 129 kts | 55° |
| 2026-04-25 10:26 | 43.33483 | 77.00025 | 2648 ft | 135 kts | 56° |
| 2026-04-25 10:26 | 43.34015 | 77.01097 | 2494 ft | 137 kts | 54° |
| 2026-04-25 10:26 | 43.34544 | 77.02156 | 2355 ft | 135 kts | 53° |
| 2026-04-25 10:26 | 43.35070 | 77.03208 | 2245 ft | 129 kts | 56° |
| 2026-04-25 10:27 | 43.35476 | 77.04011 | 2249 ft | 70 kts | 53° |
| 2026-04-25 10:27 | 43.35652 | 77.04371 | 2250 ft | 33 kts | 57° |
| 2026-04-25 10:27 | 43.35760 | 77.04594 | 2251 ft | 24 kts | 56° |
| 2026-04-25 10:27 | 43.35837 | 77.04747 | 2252 ft | 15 kts | 55° |
| 2026-04-25 10:28 | 43.35897 | 77.04866 | 2252 ft | 21 kts | 55° |
| 2026-04-25 10:28 | 43.35963 | 77.04995 | 2253 ft | 6 kts | 55° |